Terminal Aerodrome Forecast
Issued by NWS

Home | Current Version | Previous Version | Text Only | Print | Product List | Glossary On
Versions: 1 2 3 4 5 6 7 8 9 10 11 12 13 14 15 16 17
000
FTUS45 KABQ 270500
TAFSAF
TAF
KSAF 270539Z 2706/2806 03010KT P6SM -SHRA OVC050
      TEMPO 2706/2710 6SM -RA BKN025
     FM271000 36010KT P6SM VCSH BKN030 OVC050
     FM271500 01013G23KT P6SM BKN050
     FM272100 09013KT P6SM VCTS BKN035CB
     FM280000 11009KT P6SM OVC050=

USA.gov is the U.S. government's official web portal to all federal, state and local government web resources and services.